SAWH/USH METAR and TAF weather

Enter ICAO airport designator
Station Type Date Time Source
SAWH METAR 2021/08/05 05:00 UTC NOAA

SAWH 050500Z 36009KT 9999 FEW040 SCT080 08/03 Q0988


Station Type Date Time Source
SAWH Decoded METAR 2021/08/05 05:00 UTC NOAA

Ushuaia Aerodrome, Argentina (SAWH) 54-48S 068-19W 14M
Aug 05, 2021 - 01:00 AM EDT / 2021.08.05 0500 UTC
Wind: from the N (360 degrees) at 10 MPH (9 KT):0
Visibility: greater than 7 mile(s):0
Sky conditions: partly cloudy
Temperature: 46 F (8 C)
Dew Point: 37 F (3 C)
Relative Humidity: 70%
Pressure (altimeter): 29.18 in. Hg (0988 hPa)
ob: SAWH 050500Z 36009KT 9999 FEW040 SCT080 08/03 Q0988
cycle: 5

Station Type Date Time Source
SAWH TAF 2021/08/05 06:13 UTC NOAA

TAF SAWH 050500Z 0506/0606 36010KT 9999 SCT030 SCT090 TX08/0518Z TN03/0512Z
BECMG 0509/0511 34020G30KT PROB40
TEMPO 0516/0519 32025G45KT -RA SCT030 BKN060
BECMG 0520/0522 23025G35KT 9999 SHRA SCT020 SCT030 BKN050
BECMG 0600/0602 29012KT NSW SCT030 SCT090

Example: see airport list